Time;durP1;ratioP1;P1;durP2;ratioP2;P2;SDS_P1;SDS_P2;PMS_P1;PMS_P2;Temp;Humidity;BMP_temperature;BMP_pressure;BME280_temperature;BME280_humidity;BME280_pressure;Samples;Min_cycle;Max_cycle;Signal;HPM_P1;HPM_P2
2021/07/13 00:00:37;;;;;;;;;;;13.10;99.90;;;;;;5072765;28;19919;-68
2021/07/13 00:03:05;;;;;;;;;;;13.40;99.90;;;;;;5072769;28;19908;-69
2021/07/13 00:05:32;;;;;;;;;;;13.50;99.90;;;;;;5072217;28;20355;-68
2021/07/13 00:07:59;;;;;;;;;;;13.60;99.90;;;;;;5072533;28;20317;-68
2021/07/13 00:10:27;;;;;;;;;;;13.60;99.90;;;;;;5072975;28;19909;-68
2021/07/13 00:12:54;;;;;;;;;;;13.60;99.90;;;;;;5072625;28;19959;-68
2021/07/13 00:15:22;;;;;;;;;;;13.60;99.90;;;;;;5072398;28;19909;-68
2021/07/13 00:17:50;;;;;;;;;;;13.60;99.90;;;;;;5072268;28;19908;-68
2021/07/13 00:20:17;;;;;;;;;;;13.70;99.90;;;;;;5072604;28;20313;-68
2021/07/13 00:22:44;;;;;;;;;;;13.90;99.90;;;;;;5072539;28;20010;-69
2021/07/13 00:25:11;;;;;;;;;;;13.90;99.90;;;;;;5072661;28;19953;-68
2021/07/13 00:27:38;;;;;;;;;;;13.90;99.90;;;;;;5072080;28;19934;-68
2021/07/13 00:30:05;;;;;;;;;;;13.90;99.90;;;;;;5072298;28;19997;-69
2021/07/13 00:32:32;;;;;;;;;;;13.90;99.90;;;;;;5072439;28;19909;-68
2021/07/13 00:34:59;;;;;;;;;;;13.90;99.90;;;;;;5072473;28;19912;-69
2021/07/13 00:37:25;;;;;;;;;;;13.90;99.90;;;;;;5072362;28;19912;-68
2021/07/13 00:39:52;;;;;;;;;;;14.00;99.90;;;;;;5072199;28;19940;-69
2021/07/13 00:42:18;;;;;;;;;;;14.00;99.90;;;;;;5072380;28;19909;-68
2021/07/13 00:44:46;;;;;;;;;;;14.00;99.90;;;;;;5070528;28;19920;-68
2021/07/13 00:47:13;;;;;;;;;;;14.20;99.90;;;;;;5072122;28;20419;-68
2021/07/13 00:49:44;;;;;;;;;;;14.20;99.90;;;;;;5071922;28;19927;-69
2021/07/13 00:52:11;;;;;;;;;;;14.30;99.90;;;;;;5072249;28;19908;-68
2021/07/13 00:54:39;;;;;;;;;;;14.40;99.90;;;;;;5072195;28;19909;-68
2021/07/13 00:57:10;;;;;;;;;;;14.50;99.90;;;;;;5072043;28;19959;-69
2021/07/13 00:59:37;;;;;;;;;;;14.70;99.90;;;;;;5070425;28;20290;-68
2021/07/13 01:02:08;;;;;;;;;;;14.80;99.90;;;;;;5072262;28;19954;-68
2021/07/13 01:04:36;;;;;;;;;;;14.70;99.90;;;;;;5072365;28;19909;-69
2021/07/13 01:07:17;;;;;;;;;;;14.90;99.90;;;;;;5072243;28;19970;-68
2021/07/13 01:09:44;;;;;;;;;;;15.20;99.90;;;;;;5071761;28;19916;-69
2021/07/13 01:12:26;;;;;;;;;;;15.40;99.90;;;;;;5072175;28;19940;-67
2021/07/13 01:14:59;;;;;;;;;;;16.20;99.90;;;;;;5071899;28;20363;-67
2021/07/13 01:17:32;;;;;;;;;;;16.50;99.90;;;;;;5073192;28;19914;-67
2021/07/13 01:20:16;;;;;;;;;;;16.60;99.90;;;;;;5075904;28;20367;-68
2021/07/13 01:22:48;;;;;;;;;;;17.00;99.90;;;;;;5075903;28;20003;-68
2021/07/13 01:25:26;;;;;;;;;;;17.50;99.90;;;;;;5075857;28;19916;-66
2021/07/13 01:28:16;;;;;;;;;;;17.30;99.90;;;;;;5075375;28;20355;-67
2021/07/13 01:30:45;;;;;;;;;;;17.00;99.90;;;;;;5072771;28;19908;-68
2021/07/13 01:33:20;;;;;;;;;;;16.90;99.90;;;;;;5075769;28;19999;-68
2021/07/13 01:35:56;;;;;;;;;;;16.50;99.90;;;;;;5075401;28;20390;-68
2021/07/13 01:38:25;;;;;;;;;;;16.30;99.90;;;;;;5075640;28;19909;-68
2021/07/13 01:40:54;;;;;;;;;;;16.00;99.90;;;;;;5075428;28;20404;-67
2021/07/13 01:43:22;;;;;;;;;;;15.90;99.90;;;;;;5075266;28;20011;-68
2021/07/13 01:45:49;;;;;;;;;;;15.90;99.90;;;;;;5075365;28;19913;-68
2021/07/13 01:48:16;;;;;;;;;;;15.90;99.90;;;;;;5075536;28;19913;-68
2021/07/13 01:50:49;;;;;;;;;;;15.70;99.90;;;;;;5075507;28;20042;-68
2021/07/13 01:53:16;;;;;;;;;;;15.70;99.90;;;;;;5075419;28;19975;-68
2021/07/13 01:55:43;;;;;;;;;;;15.80;99.90;;;;;;5075239;28;19940;-68
2021/07/13 01:58:10;;;;;;;;;;;15.80;99.90;;;;;;5075257;28;19995;-67
2021/07/13 02:00:37;;;;;;;;;;;15.80;99.90;;;;;;5075077;28;19908;-67
2021/07/13 02:03:05;;;;;;;;;;;15.90;99.90;;;;;;5075162;28;20534;-67
2021/07/13 02:05:32;;;;;;;;;;;16.00;99.90;;;;;;5074881;28;20344;-67
2021/07/13 02:08:01;;;;;;;;;;;16.00;99.90;;;;;;5074922;28;19913;-68
2021/07/13 02:10:28;;;;;;;;;;;16.00;99.90;;;;;;5075133;28;20387;-67
2021/07/13 02:12:55;;;;;;;;;;;16.00;99.90;;;;;;5074866;28;19908;-68
2021/07/13 02:15:21;;;;;;;;;;;15.90;99.90;;;;;;5074863;28;19909;-68
2021/07/13 02:17:51;;;;;;;;;;;15.90;99.90;;;;;;5074831;28;19908;-67
2021/07/13 02:20:19;;;;;;;;;;;15.90;99.90;;;;;;5075050;28;19970;-68
2021/07/13 02:22:46;;;;;;;;;;;16.00;99.90;;;;;;5075135;28;19909;-69
2021/07/13 02:25:13;;;;;;;;;;;16.00;99.90;;;;;;5075151;28;20371;-69
2021/07/13 02:27:43;;;;;;;;;;;16.00;99.90;;;;;;5073951;28;19908;-68
2021/07/13 02:30:10;;;;;;;;;;;16.00;99.90;;;;;;5074475;28;20285;-68
2021/07/13 02:32:40;;;;;;;;;;;16.00;99.90;;;;;;5074554;28;19913;-68
2021/07/13 02:35:07;;;;;;;;;;;16.00;99.90;;;;;;5074478;28;20346;-68
2021/07/13 02:37:36;;;;;;;;;;;16.00;99.90;;;;;;5074036;28;19908;-68
2021/07/13 02:40:05;;;;;;;;;;;16.00;99.90;;;;;;5073775;28;19947;-69
2021/07/13 02:42:32;;;;;;;;;;;15.90;99.90;;;;;;5074307;28;20279;-67
2021/07/13 02:45:00;;;;;;;;;;;16.00;99.90;;;;;;5074597;28;20331;-68
2021/07/13 02:47:27;;;;;;;;;;;15.90;99.90;;;;;;5107294;28;20058;-67
2021/07/13 02:49:55;;;;;;;;;;;16.10;99.90;;;;;;5074055;28;20252;-67
2021/07/13 02:52:24;;;;;;;;;;;16.10;99.90;;;;;;5074382;28;19916;-67
2021/07/13 02:54:55;;;;;;;;;;;16.10;99.90;;;;;;5074075;28;19912;-68
2021/07/13 02:57:22;;;;;;;;;;;16.10;99.20;;;;;;5072828;28;20318;-68
2021/07/13 02:59:50;;;;;;;;;;;16.10;99.40;;;;;;5073812;28;19912;-67
2021/07/13 03:02:18;;;;;;;;;;;16.10;99.80;;;;;;5073928;28;19920;-68
2021/07/13 03:04:45;;;;;;;;;;;16.10;99.90;;;;;;5073889;28;19909;-67
2021/07/13 03:07:12;;;;;;;;;;;16.10;99.90;;;;;;5073994;28;19909;-67
2021/07/13 03:09:39;;;;;;;;;;;16.10;99.00;;;;;;5073663;28;20025;-67
2021/07/13 03:12:09;;;;;;;;;;;16.10;99.00;;;;;;5073755;28;19962;-69
2021/07/13 03:14:39;;;;;;;;;;;16.00;99.00;;;;;;5073913;28;19999;-67
2021/07/13 03:17:10;;;;;;;;;;;16.00;98.80;;;;;;5073728;28;20037;-67
2021/07/13 03:19:37;;;;;;;;;;;16.00;99.60;;;;;;5073421;28;20260;-68
2021/07/13 03:22:04;;;;;;;;;;;16.00;99.90;;;;;;5074370;28;21593;-68
2021/07/13 03:24:31;;;;;;;;;;;16.00;99.90;;;;;;5091973;28;20416;-68
2021/07/13 03:26:59;;;;;;;;;;;16.30;99.70;;;;;;5093741;28;20366;-68
2021/07/13 03:29:26;;;;;;;;;;;16.30;99.40;;;;;;5093561;28;19916;-69
2021/07/13 03:31:53;;;;;;;;;;;16.30;99.10;;;;;;5093589;28;19916;-68
2021/07/13 03:34:21;;;;;;;;;;;16.30;99.00;;;;;;5093704;28;19909;-67
2021/07/13 03:36:48;;;;;;;;;;;16.30;98.80;;;;;;5092348;28;19924;-68
2021/07/13 03:39:15;;;;;;;;;;;16.30;98.90;;;;;;5092842;28;19908;-67
2021/07/13 03:41:42;;;;;;;;;;;16.20;99.00;;;;;;5093365;28;19912;-68
2021/07/13 03:44:08;;;;;;;;;;;16.00;99.20;;;;;;5106786;28;20366;-67
2021/07/13 03:46:36;;;;;;;;;;;16.10;99.70;;;;;;5113830;28;19984;-67
2021/07/13 03:49:04;;;;;;;;;;;16.30;99.30;;;;;;5113610;28;20018;-68
2021/07/13 03:51:44;;;;;;;;;;;16.30;98.60;;;;;;5111609;28;19915;-64
2021/07/13 03:54:11;;;;;;;;;;;16.20;99.00;;;;;;5110294;28;19912;-67
2021/07/13 03:56:38;;;;;;;;;;;16.20;99.60;;;;;;5111355;28;19908;-66
2021/07/13 03:59:05;;;;;;;;;;;16.20;99.30;;;;;;5113562;28;19908;-67
2021/07/13 04:01:32;;;;;;;;;;;16.40;99.30;;;;;;5113282;28;20316;-68
2021/07/13 04:03:59;;;;;;;;;;;16.50;98.30;;;;;;5113588;28;20233;-68
2021/07/13 04:06:26;;;;;;;;;;;16.40;98.10;;;;;;5111365;28;20289;-68
2021/07/13 04:08:53;;;;;;;;;;;16.30;98.00;;;;;;5113376;28;20331;-68
2021/07/13 04:11:19;;;;;;;;;;;16.40;98.50;;;;;;5113156;28;20282;-67
2021/07/13 04:13:46;;;;;;;;;;;16.40;99.30;;;;;;5112971;28;19926;-67
2021/07/13 04:16:13;;;;;;;;;;;16.40;98.40;;;;;;5113319;28;20107;-67
2021/07/13 04:18:39;;;;;;;;;;;16.40;97.00;;;;;;5113489;28;20356;-67
2021/07/13 04:21:06;;;;;;;;;;;16.50;96.10;;;;;;5113216;28;19908;-68
2021/07/13 04:23:33;;;;;;;;;;;16.50;93.70;;;;;;5112971;28;20329;-68
2021/07/13 04:26:00;;;;;;;;;;;16.50;93.30;;;;;;5112907;28;19908;-68
2021/07/13 04:28:29;;;;;;;;;;;16.40;93.30;;;;;;5112816;28;20407;-68
2021/07/13 04:30:57;;;;;;;;;;;16.40;93.10;;;;;;5113071;28;19908;-66
2021/07/13 04:33:23;;;;;;;;;;;16.40;93.90;;;;;;5113061;28;20320;-68
2021/07/13 04:35:50;;;;;;;;;;;16.30;93.90;;;;;;5112960;28;19912;-68
2021/07/13 04:38:17;;;;;;;;;;;16.20;93.20;;;;;;5112866;28;19916;-67
2021/07/13 04:40:43;;;;;;;;;;;16.20;93.50;;;;;;5113203;28;19934;-68
2021/07/13 04:43:10;;;;;;;;;;;16.20;93.80;;;;;;5112484;28;19920;-68
2021/07/13 04:45:37;;;;;;;;;;;16.30;93.10;;;;;;5112562;28;19977;-67
2021/07/13 04:48:03;;;;;;;;;;;16.30;93.70;;;;;;5112621;28;20291;-67
2021/07/13 04:50:30;;;;;;;;;;;16.50;93.80;;;;;;5114735;28;19963;-68
2021/07/13 04:52:57;;;;;;;;;;;16.40;94.10;;;;;;5119440;28;19918;-67
2021/07/13 04:55:24;;;;;;;;;;;16.30;94.30;;;;;;5119687;28;20385;-67
2021/07/13 04:57:50;;;;;;;;;;;16.30;94.60;;;;;;5119302;28;19915;-68
2021/07/13 05:00:17;;;;;;;;;;;16.20;94.70;;;;;;5119530;28;19912;-68
2021/07/13 05:02:44;;;;;;;;;;;16.20;95.10;;;;;;5119589;28;19908;-67
2021/07/13 05:05:14;;;;;;;;;;;16.30;96.10;;;;;;5119699;28;19961;-67
2021/07/13 05:07:41;;;;;;;;;;;16.40;95.30;;;;;;5119092;28;19962;-67
2021/07/13 05:10:09;;;;;;;;;;;16.50;96.00;;;;;;5119329;28;19916;-67
2021/07/13 05:12:37;;;;;;;;;;;16.50;96.50;;;;;;5119218;28;20381;-67
2021/07/13 05:15:04;;;;;;;;;;;16.50;96.80;;;;;;5119631;28;20362;-68
2021/07/13 05:17:31;;;;;;;;;;;16.50;95.80;;;;;;5119044;28;19908;-66
2021/07/13 05:19:58;;;;;;;;;;;16.60;96.00;;;;;;5119198;28;19908;-68
2021/07/13 05:22:25;;;;;;;;;;;16.70;95.10;;;;;;5119282;28;19907;-68
2021/07/13 05:24:51;;;;;;;;;;;16.60;94.60;;;;;;5119555;28;19912;-68
2021/07/13 05:27:18;;;;;;;;;;;16.50;95.00;;;;;;5119332;28;20263;-68
2021/07/13 05:29:45;;;;;;;;;;;16.40;95.40;;;;;;5118869;28;19920;-68
2021/07/13 05:32:11;;;;;;;;;;;16.30;95.50;;;;;;5119158;28;19908;-68
2021/07/13 05:34:38;;;;;;;;;;;16.30;95.80;;;;;;5119278;28;19947;-66
2021/07/13 05:37:06;;;;;;;;;;;16.20;96.20;;;;;;5119101;28;20275;-67
2021/07/13 05:39:33;;;;;;;;;;;16.10;97.20;;;;;;5118994;28;19994;-68
2021/07/13 05:42:00;;;;;;;;;;;16.00;97.70;;;;;;5119099;28;19924;-68
2021/07/13 05:44:26;;;;;;;;;;;15.90;97.60;;;;;;5118954;28;19919;-68
2021/07/13 05:46:53;;;;;;;;;;;15.90;98.10;;;;;;5119079;28;19912;-67
2021/07/13 05:49:20;;;;;;;;;;;15.90;98.80;;;;;;5119100;28;19916;-68
2021/07/13 05:51:46;;;;;;;;;;;15.90;98.70;;;;;;5100729;28;20396;-67
2021/07/13 05:54:13;;;;;;;;;;;16.00;98.50;;;;;;5119182;28;19908;-67
2021/07/13 05:56:40;;;;;;;;;;;15.90;98.90;;;;;;5118997;28;19908;-68
2021/07/13 05:59:07;;;;;;;;;;;15.80;98.90;;;;;;5119076;28;19916;-68
2021/07/13 06:01:33;;;;;;;;;;;15.80;99.40;;;;;;5117808;28;19908;-67
2021/07/13 06:04:00;;;;;;;;;;;15.70;99.90;;;;;;5115791;28;19907;-68
2021/07/13 06:06:29;;;;;;;;;;;15.80;99.90;;;;;;5115890;28;19977;-67
2021/07/13 06:08:56;;;;;;;;;;;15.90;99.90;;;;;;5115838;28;19922;-67
2021/07/13 06:11:23;;;;;;;;;;;15.90;99.90;;;;;;5115456;28;20381;-68
2021/07/13 06:13:49;;;;;;;;;;;15.90;99.90;;;;;;5115305;28;19911;-68
2021/07/13 06:16:16;;;;;;;;;;;15.80;99.90;;;;;;5115486;28;19908;-67
2021/07/13 06:18:43;;;;;;;;;;;15.90;99.90;;;;;;5115491;28;19908;-67
2021/07/13 06:21:09;;;;;;;;;;;15.80;99.90;;;;;;5115223;28;19907;-67
2021/07/13 06:23:36;;;;;;;;;;;15.80;99.90;;;;;;5115131;28;19907;-67
2021/07/13 06:26:03;;;;;;;;;;;15.80;99.90;;;;;;5115306;28;19908;-67
2021/07/13 06:28:30;;;;;;;;;;;15.80;99.90;;;;;;5115257;28;20377;-68
2021/07/13 06:30:56;;;;;;;;;;;15.80;99.90;;;;;;5115310;28;19919;-68
2021/07/13 06:33:23;;;;;;;;;;;15.70;99.90;;;;;;5115130;28;19943;-67
2021/07/13 06:35:50;;;;;;;;;;;15.60;99.90;;;;;;5114916;28;20002;-67
2021/07/13 06:38:16;;;;;;;;;;;15.60;99.90;;;;;;5115132;28;19959;-68
2021/07/13 06:40:44;;;;;;;;;;;15.50;99.90;;;;;;5114953;28;19914;-67
2021/07/13 06:43:10;;;;;;;;;;;15.40;99.90;;;;;;5114587;28;19916;-68
2021/07/13 06:45:37;;;;;;;;;;;15.40;99.90;;;;;;5114886;28;19999;-68
2021/07/13 06:48:04;;;;;;;;;;;15.30;99.90;;;;;;5115146;28;19908;-67
2021/07/13 06:50:30;;;;;;;;;;;15.30;99.90;;;;;;5115051;28;19935;-67
2021/07/13 06:52:57;;;;;;;;;;;15.20;99.90;;;;;;5114879;28;19995;-67
2021/07/13 06:55:24;;;;;;;;;;;15.20;99.90;;;;;;5114554;28;19908;-67
2021/07/13 06:57:50;;;;;;;;;;;15.10;99.90;;;;;;5114256;28;19955;-68
2021/07/13 07:00:17;;;;;;;;;;;15.10;99.90;;;;;;5114693;28;19919;-68
2021/07/13 07:02:44;;;;;;;;;;;15.10;99.90;;;;;;5114469;28;19908;-68
2021/07/13 07:05:11;;;;;;;;;;;15.00;99.90;;;;;;5114514;28;20377;-67
2021/07/13 07:07:48;;;;;;;;;;;15.00;99.90;;;;;;5114604;28;19912;-67
2021/07/13 07:10:16;;;;;;;;;;;14.90;99.90;;;;;;5114451;28;19915;-69
2021/07/13 07:12:43;;;;;;;;;;;14.80;99.90;;;;;;5114200;28;19912;-68
2021/07/13 07:15:10;;;;;;;;;;;14.80;99.90;;;;;;5113200;28;19908;-68
2021/07/13 07:17:47;;;;;;;;;;;14.70;99.90;;;;;;5114230;28;20339;-68
2021/07/13 07:20:15;;;;;;;;;;;14.70;99.90;;;;;;5111605;28;19912;-68
2021/07/13 07:22:42;;;;;;;;;;;14.60;99.90;;;;;;5107474;28;19916;-68
2021/07/13 07:25:09;;;;;;;;;;;14.60;99.90;;;;;;5114195;28;20056;-68
2021/07/13 07:27:36;;;;;;;;;;;14.60;99.90;;;;;;5113666;28;19912;-69
2021/07/13 07:30:04;;;;;;;;;;;14.50;99.90;;;;;;5114084;28;19928;-67
2021/07/13 07:32:31;;;;;;;;;;;14.60;99.90;;;;;;5114262;28;19907;-67
2021/07/13 07:34:58;;;;;;;;;;;14.50;99.90;;;;;;5114350;28;19911;-68
2021/07/13 07:37:24;;;;;;;;;;;14.40;99.90;;;;;;5113769;28;20423;-68
2021/07/13 07:39:51;;;;;;;;;;;14.40;99.90;;;;;;5112145;28;19914;-67
2021/07/13 07:42:18;;;;;;;;;;;14.30;99.90;;;;;;5111556;28;19911;-68
2021/07/13 07:44:44;;;;;;;;;;;14.40;99.90;;;;;;5111592;28;19920;-67
2021/07/13 07:47:11;;;;;;;;;;;14.40;99.90;;;;;;5111549;28;19994;-68
2021/07/13 07:49:38;;;;;;;;;;;14.40;99.90;;;;;;5111359;28;19924;-67
2021/07/13 07:52:04;;;;;;;;;;;14.40;99.90;;;;;;5111590;28;19912;-68
2021/07/13 07:54:31;;;;;;;;;;;14.30;99.90;;;;;;5111095;28;19916;-68
2021/07/13 07:56:58;;;;;;;;;;;14.20;99.90;;;;;;5111477;28;19919;-67
2021/07/13 07:59:25;;;;;;;;;;;14.10;99.90;;;;;;5111362;28;19907;-68
2021/07/13 08:01:52;;;;;;;;;;;14.00;99.90;;;;;;5111208;28;19908;-67
2021/07/13 08:04:18;;;;;;;;;;;13.90;99.90;;;;;;5111562;28;20251;-67
2021/07/13 08:06:45;;;;;;;;;;;13.90;99.90;;;;;;5110895;28;20328;-67
2021/07/13 08:09:12;;;;;;;;;;;14.00;99.90;;;;;;5111229;28;20573;-67
2021/07/13 08:11:39;;;;;;;;;;;14.00;99.90;;;;;;5110863;28;20289;-68
2021/07/13 08:14:06;;;;;;;;;;;14.00;99.90;;;;;;5111150;28;19912;-67
2021/07/13 08:16:35;;;;;;;;;;;14.00;99.90;;;;;;5111112;28;20004;-67
2021/07/13 08:19:02;;;;;;;;;;;14.00;99.90;;;;;;5110679;28;19914;-67
2021/07/13 08:21:28;;;;;;;;;;;14.00;99.90;;;;;;5110934;28;19908;-68
2021/07/13 08:23:55;;;;;;;;;;;13.90;99.90;;;;;;5111210;28;19910;-68
2021/07/13 08:26:23;;;;;;;;;;;13.90;99.90;;;;;;5110636;28;19938;-68
2021/07/13 08:28:50;;;;;;;;;;;13.90;99.90;;;;;;5101226;28;20317;-68
2021/07/13 08:31:16;;;;;;;;;;;13.80;99.90;;;;;;5070290;28;19909;-68
2021/07/13 08:33:43;;;;;;;;;;;13.90;99.90;;;;;;5069960;28;20275;-68
2021/07/13 08:36:10;;;;;;;;;;;13.90;99.90;;;;;;5070088;28;19916;-70
2021/07/13 08:38:36;;;;;;;;;;;13.90;99.90;;;;;;5070360;28;19915;-68
2021/07/13 08:41:03;;;;;;;;;;;13.90;99.90;;;;;;5070062;28;19919;-68
2021/07/13 08:43:30;;;;;;;;;;;13.90;99.90;;;;;;5069220;28;19931;-68
2021/07/13 08:45:57;;;;;;;;;;;13.80;99.90;;;;;;5070382;28;19952;-68
2021/07/13 08:48:24;;;;;;;;;;;13.80;99.90;;;;;;5070288;28;19917;-68
2021/07/13 08:50:58;;;;;;;;;;;13.80;99.90;;;;;;5070483;28;19916;-68
2021/07/13 08:53:25;;;;;;;;;;;13.80;99.90;;;;;;5070692;28;19908;-68
2021/07/13 08:55:54;;;;;;;;;;;13.80;99.90;;;;;;5102135;28;19942;-68
2021/07/13 08:58:21;;;;;;;;;;;13.80;99.90;;;;;;5070044;28;19912;-67
2021/07/13 09:00:48;;;;;;;;;;;13.80;99.90;;;;;;5069761;28;19946;-68
2021/07/13 09:03:19;;;;;;;;;;;13.70;99.90;;;;;;5071708;28;19913;-68
2021/07/13 09:05:45;;;;;;;;;;;13.80;99.90;;;;;;5072997;28;19909;-67
2021/07/13 09:08:13;;;;;;;;;;;13.80;99.90;;;;;;5080380;28;19952;-67
2021/07/13 09:10:39;;;;;;;;;;;13.70;99.90;;;;;;5092160;28;19912;-67
2021/07/13 09:13:06;;;;;;;;;;;13.70;99.90;;;;;;5092371;28;19908;-68
2021/07/13 09:15:33;;;;;;;;;;;13.70;99.90;;;;;;5092463;28;19908;-68
2021/07/13 09:17:59;;;;;;;;;;;13.70;99.90;;;;;;5092133;28;19912;-67
2021/07/13 09:20:29;;;;;;;;;;;13.60;99.90;;;;;;5092268;28;20354;-68
2021/07/13 09:22:59;;;;;;;;;;;13.60;99.90;;;;;;5092131;28;19912;-67
2021/07/13 09:25:32;;;;;;;;;;;13.50;99.90;;;;;;5090586;28;19916;-67
2021/07/13 09:28:04;;;;;;;;;;;13.50;99.90;;;;;;5091170;28;20385;-67
2021/07/13 09:30:31;;;;;;;;;;;13.50;99.90;;;;;;5092213;28;19921;-68
2021/07/13 09:33:15;;;;;;;;;;;13.50;99.90;;;;;;5073430;28;19908;-68
2021/07/13 09:36:00;;;;;;;;;;;13.60;99.90;;;;;;5071684;28;19955;-68
2021/07/13 09:38:27;;;;;;;;;;;13.60;99.90;;;;;;5074516;28;20021;-68
2021/07/13 09:41:05;;;;;;;;;;;13.70;99.90;;;;;;5075350;28;19908;-69
2021/07/13 09:43:43;;;;;;;;;;;13.70;99.90;;;;;;5074596;28;19928;-67
2021/07/13 09:46:21;;;;;;;;;;;13.70;99.90;;;;;;5075405;28;19908;-68
2021/07/13 09:49:07;;;;;;;;;;;13.70;99.90;;;;;;5075304;28;20294;-69
2021/07/13 09:51:34;;;;;;;;;;;13.70;99.90;;;;;;5075210;28;19991;-68
2021/07/13 09:54:01;;;;;;;;;;;13.70;99.90;;;;;;5075279;28;19942;-68
2021/07/13 09:56:45;;;;;;;;;;;13.80;99.90;;;;;;5075393;28;20351;-68
2021/07/13 09:59:11;;;;;;;;;;;13.80;99.90;;;;;;5075179;28;19909;-68
2021/07/13 10:01:38;;;;;;;;;;;13.70;99.90;;;;;;5075158;28;20010;-68
2021/07/13 10:04:05;;;;;;;;;;;13.70;99.90;;;;;;5075056;28;19961;-67
2021/07/13 10:06:32;;;;;;;;;;;13.70;99.90;;;;;;5078733;28;20282;-68
2021/07/13 10:08:59;;;;;;;;;;;13.80;99.90;;;;;;5094600;28;20019;-67
2021/07/13 10:11:28;;;;;;;;;;;13.80;99.90;;;;;;5094922;28;20007;-69
2021/07/13 10:13:58;;;;;;;;;;;13.80;99.90;;;;;;5094893;28;19908;-68
2021/07/13 10:16:25;;;;;;;;;;;13.80;99.90;;;;;;5095255;28;20306;-69
2021/07/13 10:18:51;;;;;;;;;;;13.80;99.90;;;;;;5095267;28;20419;-68
2021/07/13 10:21:19;;;;;;;;;;;13.80;99.90;;;;;;5093699;28;19946;-68
2021/07/13 10:23:46;;;;;;;;;;;13.80;99.90;;;;;;5093905;28;20383;-67
2021/07/13 10:26:13;;;;;;;;;;;13.70;99.90;;;;;;5092456;28;19934;-68
2021/07/13 10:28:39;;;;;;;;;;;13.70;99.90;;;;;;5094245;28;19957;-68
2021/07/13 10:31:06;;;;;;;;;;;13.70;99.90;;;;;;5095075;28;20130;-69
2021/07/13 10:33:37;;;;;;;;;;;13.70;99.90;;;;;;5094629;28;20235;-69
2021/07/13 10:36:27;;;;;;;;;;;13.70;99.90;;;;;;5093648;28;19913;-68
2021/07/13 10:39:12;;;;;;;;;;;13.70;99.90;;;;;;5089148;28;19915;-68
2021/07/13 10:41:38;;;;;;;;;;;13.70;99.90;;;;;;5093251;28;20340;-68
2021/07/13 10:44:05;;;;;;;;;;;13.60;99.90;;;;;;5094587;28;20387;-69
2021/07/13 10:46:31;;;;;;;;;;;13.60;99.90;;;;;;5094687;28;19908;-68
2021/07/13 10:49:20;;;;;;;;;;;13.60;99.90;;;;;;5094057;28;20045;-68
2021/07/13 10:51:46;;;;;;;;;;;13.70;99.90;;;;;;5094440;28;19908;-68
2021/07/13 10:54:18;;;;;;;;;;;13.70;99.90;;;;;;5094191;28;19908;-67
2021/07/13 10:56:44;;;;;;;;;;;13.70;99.90;;;;;;5093736;28;19915;-69
2021/07/13 10:59:23;;;;;;;;;;;13.70;99.90;;;;;;5094408;28;19908;-68
2021/07/13 11:02:08;;;;;;;;;;;13.70;99.90;;;;;;5094133;28;20015;-69
2021/07/13 11:04:34;;;;;;;;;;;13.60;99.90;;;;;;5094203;28;20019;-67
2021/07/13 11:07:03;;;;;;;;;;;13.60;99.90;;;;;;5094301;28;19980;-68
2021/07/13 11:09:31;;;;;;;;;;;13.60;99.90;;;;;;5093696;28;19923;-69
2021/07/13 11:12:05;;;;;;;;;;;13.60;99.90;;;;;;5093637;28;19970;-67
2021/07/13 11:14:32;;;;;;;;;;;13.60;99.90;;;;;;5092112;28;20367;-67
2021/07/13 11:16:58;;;;;;;;;;;13.60;99.90;;;;;;5091982;28;19909;-67
2021/07/13 11:19:30;;;;;;;;;;;13.60;99.90;;;;;;5091936;28;19995;-68
2021/07/13 11:21:58;;;;;;;;;;;13.60;99.90;;;;;;5091966;28;19908;-69
2021/07/13 11:24:25;;;;;;;;;;;13.60;99.90;;;;;;5091766;28;20359;-69
2021/07/13 11:26:53;;;;;;;;;;;13.60;99.90;;;;;;5090882;28;19908;-68
2021/07/13 11:29:21;;;;;;;;;;;13.60;99.90;;;;;;5091596;28;19916;-69
2021/07/13 11:31:58;;;;;;;;;;;13.60;99.90;;;;;;5091416;28;20075;-69
2021/07/13 11:34:26;;;;;;;;;;;13.60;99.90;;;;;;5091729;28;19908;-68
2021/07/13 11:36:54;;;;;;;;;;;13.70;99.90;;;;;;5091352;28;19914;-68
2021/07/13 11:39:30;;;;;;;;;;;13.60;99.90;;;;;;5091378;28;20379;-69
2021/07/13 11:42:02;;;;;;;;;;;13.60;99.90;;;;;;5091025;28;20287;-69
2021/07/13 11:44:29;;;;;;;;;;;13.60;99.90;;;;;;5091261;28;19965;-68
2021/07/13 11:46:56;;;;;;;;;;;13.60;99.90;;;;;;5091466;28;19915;-68
2021/07/13 11:49:26;;;;;;;;;;;13.60;99.90;;;;;;5091073;28;19916;-69
2021/07/13 11:51:58;;;;;;;;;;;13.60;99.90;;;;;;5091149;28;19908;-69
2021/07/13 11:54:26;;;;;;;;;;;13.50;99.90;;;;;;5090622;28;19915;-68
2021/07/13 11:56:58;;;;;;;;;;;13.50;99.90;;;;;;5090577;28;20286;-69
2021/07/13 11:59:27;;;;;;;;;;;13.50;99.90;;;;;;5090716;28;19992;-69
2021/07/13 12:01:57;;;;;;;;;;;13.50;99.90;;;;;;5090387;28;19912;-69
2021/07/13 12:04:25;;;;;;;;;;;13.40;99.90;;;;;;5090973;28;19912;-68
2021/07/13 12:06:53;;;;;;;;;;;13.40;99.90;;;;;;5090661;28;19986;-68
2021/07/13 12:09:26;;;;;;;;;;;13.40;99.90;;;;;;5090617;28;19990;-69
2021/07/13 12:11:54;;;;;;;;;;;13.40;99.90;;;;;;5090150;28;19915;-69
2021/07/13 12:14:23;;;;;;;;;;;13.30;99.90;;;;;;5090622;28;20003;-69
2021/07/13 12:16:50;;;;;;;;;;;13.30;99.90;;;;;;5090748;28;20374;-68
2021/07/13 12:19:20;;;;;;;;;;;13.40;99.90;;;;;;5090388;28;19965;-69
2021/07/13 12:21:54;;;;;;;;;;;13.30;99.90;;;;;;5090714;28;20448;-69
2021/07/13 12:24:24;;;;;;;;;;;13.30;99.90;;;;;;5090629;28;19908;-69
2021/07/13 12:26:51;;;;;;;;;;;13.30;99.90;;;;;;5088588;28;19930;-68
2021/07/13 12:29:18;;;;;;;;;;;13.20;99.90;;;;;;5089891;28;19920;-68
2021/07/13 12:31:46;;;;;;;;;;;13.20;99.90;;;;;;5090435;28;19908;-68
2021/07/13 12:34:21;;;;;;;;;;;13.20;99.90;;;;;;5090256;28;19912;-69
2021/07/13 12:36:49;;;;;;;;;;;13.20;99.90;;;;;;5090599;28;19908;-69
2021/07/13 12:39:20;;;;;;;;;;;13.20;99.90;;;;;;5090352;28;19912;-68
2021/07/13 12:42:08;;;;;;;;;;;13.20;99.90;;;;;;5088416;28;19915;-69
2021/07/13 12:44:36;;;;;;;;;;;13.10;99.90;;;;;;5107916;28;19919;-69
2021/07/13 12:47:19;;;;;;;;;;;13.20;99.90;;;;;;5110464;28;20006;-69
2021/07/13 12:50:03;;;;;;;;;;;13.20;99.90;;;;;;5110407;28;20016;-69
2021/07/13 12:52:33;;;;;;;;;;;13.20;99.90;;;;;;5110914;28;19923;-69
2021/07/13 12:55:05;;;;;;;;;;;13.20;99.90;;;;;;5109961;28;19908;-69
2021/07/13 12:57:33;;;;;;;;;;;13.20;99.90;;;;;;5108399;28;19928;-68
2021/07/13 13:00:09;;;;;;;;;;;13.20;99.90;;;;;;5110349;28;19912;-69
2021/07/13 13:02:36;;;;;;;;;;;13.20;99.90;;;;;;5110846;28;20311;-69
2021/07/13 13:05:04;;;;;;;;;;;13.20;99.90;;;;;;5110599;28;19961;-69
2021/07/13 13:07:30;;;;;;;;;;;13.20;99.90;;;;;;5110454;28;19908;-68
2021/07/13 13:09:57;;;;;;;;;;;13.20;99.90;;;;;;5110007;28;19916;-68
2021/07/13 13:12:24;;;;;;;;;;;13.20;99.90;;;;;;5111005;28;19919;-69
2021/07/13 13:14:50;;;;;;;;;;;13.20;99.90;;;;;;5114743;28;19915;-69
2021/07/13 13:17:18;;;;;;;;;;;13.20;99.90;;;;;;5114726;28;20016;-68
2021/07/13 13:19:46;;;;;;;;;;;13.20;99.90;;;;;;5097321;28;19915;-68
2021/07/13 13:22:13;;;;;;;;;;;13.20;99.90;;;;;;5073994;28;19916;-69
2021/07/13 13:24:41;;;;;;;;;;;13.20;99.90;;;;;;5073155;28;19919;-68
2021/07/13 13:27:08;;;;;;;;;;;13.10;99.90;;;;;;5098407;28;19916;-68
2021/07/13 13:29:35;;;;;;;;;;;13.10;99.90;;;;;;5114111;28;20028;-68
2021/07/13 13:32:02;;;;;;;;;;;13.10;99.90;;;;;;5114296;28;19916;-68
2021/07/13 13:34:32;;;;;;;;;;;13.10;99.90;;;;;;5114139;28;19952;-69
2021/07/13 13:36:59;;;;;;;;;;;13.10;99.90;;;;;;5114191;28;19912;-68
2021/07/13 13:39:28;;;;;;;;;;;13.10;99.90;;;;;;5089788;28;19946;-68
2021/07/13 13:41:55;;;;;;;;;;;13.10;99.90;;;;;;5104140;28;19912;-68
2021/07/13 13:44:21;;;;;;;;;;;13.10;99.90;;;;;;5113915;28;19920;-68
2021/07/13 13:46:48;;;;;;;;;;;13.00;99.90;;;;;;5114261;28;20399;-69
2021/07/13 13:49:15;;;;;;;;;;;13.00;99.90;;;;;;5114031;28;20029;-68
2021/07/13 13:51:41;;;;;;;;;;;13.00;99.90;;;;;;5113541;28;19912;-69
2021/07/13 13:54:08;;;;;;;;;;;13.00;99.90;;;;;;5113924;28;19931;-68
2021/07/13 13:56:35;;;;;;;;;;;13.00;99.90;;;;;;5111797;28;20277;-68
2021/07/13 13:59:01;;;;;;;;;;;13.00;99.90;;;;;;5113825;28;19908;-69
2021/07/13 14:01:28;;;;;;;;;;;12.90;99.90;;;;;;5113933;28;19947;-68
2021/07/13 14:03:55;;;;;;;;;;;12.90;99.90;;;;;;5113229;28;20448;-67
2021/07/13 14:06:21;;;;;;;;;;;12.90;99.90;;;;;;5113848;28;19908;-67
2021/07/13 14:08:49;;;;;;;;;;;12.90;99.90;;;;;;5113499;28;19927;-67
2021/07/13 14:11:16;;;;;;;;;;;12.90;99.90;;;;;;5074881;28;20329;-66
2021/07/13 14:13:45;;;;;;;;;;;12.90;99.90;;;;;;5072839;28;19931;-67
2021/07/13 14:16:12;;;;;;;;;;;12.80;99.90;;;;;;5072954;28;19916;-68
2021/07/13 14:18:39;;;;;;;;;;;12.80;99.90;;;;;;5072498;28;19920;-69
2021/07/13 14:21:06;;;;;;;;;;;12.70;99.90;;;;;;5072717;28;20658;-69
2021/07/13 14:23:32;;;;;;;;;;;12.70;99.90;;;;;;5053741;28;19985;-69